Kezdőlap
METAR-TAF:

METAR-TAF

Repülőterek :

Vinnicja, Ukrajna

földrajzi szélesség: 49-14-23N, földrajzi hosszúság: 028-36-50E, magasság: 974 m

Jelenlegi meteorológiai megfigyelések

A jelentés 7 órával és 15 perccel ezelõtt készült, 18:00 UTC
Szélcsend
Hőmérséklet 3°C
Páratartalom 70%
Légköri nyomás 1010 hPa
Látótávolság 10 km, vagy több

METAR: UKWW 281800Z 00000MPS 9999 NSC 03/M02 Q1010 R31/0///65 NOSIG

Idő: 03:15 (01:15 UTC)

Előrejelzés

A jelentés 8 órával és 5 perccel ezelõtt készült, 17:10 UTC
Az előrejelzés 28-én 18 óra UTC és 29-én 03 óra UTC között érvényes
Különbözõ irányokból fújó szél 2 kt
Látótávolság 10 km, vagy több
Szakadozott felhőzet 1500 lábon
28-én 20 óra UTC és 29-én 03 óra UTC között ideiglenes
Látótávolság: 3000 m
Szórványos felhőzet 500 lábon
Szakadozott felhőzet 1000 lábon, Cumulonimbus.
enyhe záporok

TAF: UKWW 281710Z 2818/2903 VRB01MPS 9999 BKN015 TX03/2818Z TN01/2903Z TEMPO 2820/2903 3000 -SHRA SCT005 BKN010CB

Meteorológiai megfigyelések és előrejelzések több, mint 4000 repülőtéren (METAR és TAF jelentéseket).

A térképen piros és sárga pontok jelzik az elérhető meteorológiai állomásokat.

Mozgassa az egeret a pont fölött, hogy megjelenjen az állomás neve.

Azután kattintson az időjárási megfigyelések és előrejelzések megtekintéséhez.

A térkép megváltoztatása: kattintson a fekete keresztel jelölt zöld gombra ráközelítéshez, a vonallal jelölt zöld gombra távolításhoz, vagy a zöld nyilakra a szomszédos térképek eléréséhez.


METAR-TAF: